Slotergracht — PDBP — position and weather

sailwx.info

Track history (hours):
 
Tides and Currents Weather Stations Pressure Air Temp Water Temp Dewpoint Dewpoint Depression Visibility Wind Speed Wind Dir Waves Ship Positions

Slotergracht

Last reported at 2017-May-29 14:59 UTC. Time now 2017-May-29 15:20 UTC.
Position N 53°32' E 009°59'.

Length 168 m; beam 25 m.

Type: Cargo ship. MMSI: 246456000.

Date/timePositionNaut miles runAvg speedWind from/ knotsBaromVisibWave heightAir tempDewpointWater temp
2017-May-29 14:59N 53°32' E 009°59'0 0.0
2017-May-29 14:29N 53°32' E 009°59'0 0.0
2017-May-29 13:29N 53°32' E 009°59'0 0.0
2017-May-29 12:59N 53°32' E 009°59'0 0.0
2017-May-29 12:29N 53°32' E 009°59'0 0.0
2017-May-29 11:59N 53°32' E 009°59'0 0.0
2017-May-29 11:29N 53°32' E 009°59'0 0.0
2017-May-29 10:59N 53°32' E 009°59'0 0.0
2017-May-29 10:29N 53°32' E 009°59'0 0.0
2017-May-29 09:59N 53°32' E 009°59'0 0.0
2017-May-29 09:29N 53°32' E 009°59'0 0.0
2017-May-29 08:59N 53°32' E 009°59'0 0.0
2017-May-29 08:29N 53°32' E 009°59'0 0.0
2017-May-29 07:59N 53°32' E 009°59'0 0.0
2017-May-29 07:29N 53°32' E 009°59'0 0.0
2017-May-29 06:59N 53°32' E 009°59'0 0.0
2017-May-29 06:29N 53°32' E 009°59'0 0.0
2017-May-29 05:59N 53°32' E 009°59'0 0.0
2017-May-29 05:29N 53°32' E 009°59'0 0.0
2017-May-29 04:59N 53°32' E 009°59'0 0.0
2017-May-29 04:29N 53°32' E 009°59'0 0.0
2017-May-29 03:59N 53°32' E 009°59'0 0.0
2017-May-29 03:29N 53°32' E 009°59'0 0.0
2017-May-29 02:59N 53°32' E 009°59'0 0.0
2017-May-29 02:29N 53°32' E 009°59'0 0.0
2017-May-29 01:59N 53°32' E 009°59'0 0.0
2017-May-29 01:29N 53°32' E 009°59'0 0.0
2017-May-29 00:59N 53°32' E 009°59'0 0.0
2017-May-29 00:29N 53°32' E 009°59'0 0.0
2017-May-28 23:59N 53°32' E 009°59'0 0.0
2017-May-28 23:29N 53°32' E 009°59'0 0.0
2017-May-28 22:59N 53°32' E 009°59'0 0.0
2017-May-28 22:29N 53°32' E 009°59'0 0.0
2017-May-28 21:59N 53°32' E 009°59'0 0.0
2017-May-28 21:29N 53°32' E 009°59'0 0.0
2017-May-28 20:59N 53°32' E 009°59'0 0.0
2017-May-28 20:29N 53°32' E 009°59'0 0.0
2017-May-28 19:59N 53°32' E 009°59'0 0.0
2017-May-28 19:29N 53°32' E 009°59'0 0.0
2017-May-28 18:59N 53°32' E 009°59'0 0.0
2017-May-28 18:30N 53°32' E 009°59'1 1.9
2017-May-28 18:00N 53°33' E 009°58'3 6.9
2017-May-28 17:30N 53°33' E 009°52'5 9.8
2017-May-28 17:01N 53°34' E 009°44'815.1
2017-May-28 16:31N 53°37' E 009°33'815.8
2017-May-28 16:00N 53°44' E 009°26'918.5
2017-May-28 15:31N 53°52' E 009°18'714.2
2017-May-28 15:00N 53°52' E 009°06'1514.9
2017-May-28 14:00N 53°55' E 008°41'918.4
2017-May-28 13:30N 53°59' E 008°26'816.5
2017-May-28 13:00N 53°60' E 008°13'815.9
2017-May-28 12:30N 54°01' E 007°59'1019.7
2017-May-28 12:00N 54°06' E 007°44'11619.3
2017-May-28 06:00N 54°30' E 004°30'15018.7 210 / 101015.2 5.4 14.011.9
2017-May-27 21:58N 54°54' E 000°14'4019.1
2017-May-27 19:52N 54°59' W 000°55'719.4
2017-May-27 19:30N 54°60' W 001°07'918.0
2017-May-27 19:00N 55°01' W 001°22'3 6.9
2017-May-27 18:30N 54°59' W 001°28'3 5.2
2017-May-27 18:00N 54°59' W 001°32'0 0.0
2017-May-27 17:30N 54°59' W 001°32'0 0.0
2017-May-27 16:58N 54°59' W 001°32'0 0.0
2017-May-27 16:28N 54°59' W 001°32'0 0.0
2017-May-27 15:58N 54°59' W 001°32'0 0.0
2017-May-27 15:28N 54°59' W 001°32'0 0.0
2017-May-27 14:58N 54°59' W 001°32'0 0.0
2017-May-27 13:58N 54°59' W 001°32'0 0.0
2017-May-27 13:28N 54°59' W 001°32'0 0.0
2017-May-27 12:58N 54°59' W 001°32'0 0.0
2017-May-27 12:28N 54°59' W 001°32'0 0.0
2017-May-27 11:58N 54°59' W 001°32'0 0.0
2017-May-27 11:19N 54°59' W 001°32'0 0.0
2017-May-27 10:55N 54°59' W 001°32'0 0.0
2017-May-27 10:25N 54°59' W 001°32'0 0.0
2017-May-27 09:58N 54°59' W 001°32'0 0.0
2017-May-27 09:28N 54°59' W 001°32'0 0.0
2017-May-27 08:58N 54°59' W 001°32'0 0.0
2017-May-27 08:28N 54°59' W 001°32'0 0.0
2017-May-27 07:58N 54°59' W 001°32'0 0.0
2017-May-27 07:28N 54°59' W 001°32'0 0.0
2017-May-27 06:40N 54°59' W 001°32'0 0.0
2017-May-27 06:28N 54°59' W 001°32'0 0.0
2017-May-27 05:58N 54°59' W 001°32'0 0.0
2017-May-27 05:28N 54°59' W 001°32'0 0.0
2017-May-27 04:58N 54°59' W 001°32'0 0.0
2017-May-27 04:28N 54°59' W 001°32'0 0.0
2017-May-27 03:58N 54°59' W 001°32'0 0.0
2017-May-27 03:25N 54°59' W 001°32'0 0.0
2017-May-27 02:58N 54°59' W 001°32'0 0.0
2017-May-27 02:28N 54°59' W 001°32'0 0.0
2017-May-27 01:58N 54°59' W 001°32'0 0.0
2017-May-27 01:31N 54°59' W 001°32'0 0.0
2017-May-27 00:58N 54°59' W 001°32'0 0.0
2017-May-27 00:31N 54°59' W 001°32'0 0.0
2017-May-26 23:57N 54°59' W 001°32'0 0.0
2017-May-26 23:30N 54°59' W 001°32'0 0.0
2017-May-26 23:00N 54°59' W 001°32'0 0.0
2017-May-26 22:30N 54°59' W 001°32'0 0.0
2017-May-26 21:57N 54°59' W 001°32'0 0.0
2017-May-26 21:24N 54°59' W 001°32'0 0.0
2017-May-26 20:42N 54°59' W 001°32'0 0.0
2017-May-26 20:30N 54°59' W 001°32'0 0.0
2017-May-26 20:00N 54°59' W 001°32'0 0.0
2017-May-26 19:30N 54°59' W 001°32'0 0.0
2017-May-26 19:00N 54°59' W 001°32'0 0.0
2017-May-26 18:27N 54°59' W 001°32'0 0.0
2017-May-26 17:57N 54°59' W 001°32'0 0.0
2017-May-26 17:30N 54°59' W 001°32'0 0.0
2017-May-26 17:00N 54°59' W 001°32'0 0.0
2017-May-26 16:30N 54°59' W 001°32'0 0.0
2017-May-26 14:57N 54°59' W 001°32'0 0.0
2017-May-26 14:00N 54°59' W 001°32'0 0.0
2017-May-26 13:30N 54°59' W 001°32'0 0.0
2017-May-26 13:00N 54°59' W 001°32'0 0.0
2017-May-26 12:30N 54°59' W 001°32'0 0.0
2017-May-26 12:00N 54°59' W 001°32'0 0.0
2017-May-26 11:30N 54°59' W 001°32'0 0.0
2017-May-26 11:00N 54°59' W 001°32'0 0.0
2017-May-26 10:30N 54°59' W 001°32'0 0.0
2017-May-26 10:00N 54°59' W 001°32'0 0.0
2017-May-26 09:21N 54°59' W 001°32'0 0.0
2017-May-26 09:00N 54°59' W 001°32'0 0.0
2017-May-26 08:30N 54°59' W 001°32'0 0.0
2017-May-26 08:00N 54°59' W 001°32'0 0.0
2017-May-26 07:30N 54°59' W 001°32'0 0.0
2017-May-26 07:00N 54°59' W 001°32'0 0.0
2017-May-26 06:21N 54°59' W 001°32'0 0.0
2017-May-26 05:51N 54°59' W 001°32'0 0.0
2017-May-26 05:21N 54°59' W 001°32'0 0.0
2017-May-26 05:00N 54°59' W 001°32'0 0.0
2017-May-26 04:30N 54°59' W 001°32'0 0.0
2017-May-26 03:54N 54°59' W 001°32'0 0.0
2017-May-26 03:24N 54°59' W 001°32'0 0.0
2017-May-26 02:57N 54°59' W 001°32'0 0.0
2017-May-26 02:30N 54°59' W 001°32'0 0.0
2017-May-26 01:57N 54°59' W 001°32'0 0.0
2017-May-26 01:24N 54°59' W 001°32'0 0.0
2017-May-26 00:54N 54°59' W 001°32'0 0.0
2017-May-26 00:21N 54°59' W 001°32'0 0.0
2017-May-25 23:54N 54°59' W 001°32'0 0.0
2017-May-25 23:27N 54°59' W 001°32'0 0.0
2017-May-25 22:57N 54°59' W 001°32'0 0.0
2017-May-25 22:27N 54°59' W 001°32'0 0.0
2017-May-25 21:57N 54°59' W 001°32'0 0.0
2017-May-25 21:27N 54°59' W 001°32'0 0.0
2017-May-25 20:57N 54°59' W 001°32'0 0.0
2017-May-25 20:27N 54°59' W 001°32'0 0.0
2017-May-25 19:57N 54°59' W 001°32'0 0.0
2017-May-25 19:27N 54°59' W 001°32'0 0.0
2017-May-25 18:57N 54°59' W 001°32'0 0.0
2017-May-25 18:27N 54°59' W 001°32'0 0.0
2017-May-25 18:00N 54°59' W 001°32'0 0.0
2017-May-25 17:24N 54°59' W 001°32'0 0.0
2017-May-25 17:00N 54°59' W 001°32'0 0.0
2017-May-25 16:30N 54°59' W 001°32'0 0.0
2017-May-25 16:00N 54°59' W 001°32'0 0.0
2017-May-25 15:30N 54°59' W 001°32'0 0.0
2017-May-25 15:00N 54°59' W 001°32'0 0.0
2017-May-25 14:00N 54°59' W 001°32'2 3.5
2017-May-25 13:30N 54°59' W 001°29'2 3.2
2017-May-25 13:00N 55°00' W 001°27'3 6.3
2017-May-25 12:30N 55°02' W 001°22'0 0.4
2017-May-25 12:00N 55°02' W 001°22'0 0.2
2017-May-25 11:30N 55°02' W 001°22'0 0.0
2017-May-25 11:00N 55°02' W 001°22'0 0.0
2017-May-25 10:30N 55°02' W 001°22'0 0.0
2017-May-25 10:00N 55°02' W 001°22'0 0.0
2017-May-25 09:30N 55°02' W 001°22'0 0.0
2017-May-25 09:00N 55°02' W 001°22'0 0.0
2017-May-25 08:30N 55°02' W 001°22'0 0.0
2017-May-25 07:57N 55°02' W 001°22'0 0.0
2017-May-25 07:30N 55°02' W 001°22'0 0.0
2017-May-25 07:00N 55°02' W 001°22'0 0.0
2017-May-25 06:30N 55°02' W 001°22'0 0.3
2017-May-25 06:00N 55°02' W 001°22'0 0.1
2017-May-25 05:30N 55°02' W 001°22'0 0.0
2017-May-25 05:00N 55°02' W 001°22'0 0.0
2017-May-25 04:30N 55°02' W 001°22'0 0.1
2017-May-25 04:00N 55°02' W 001°22'0 0.0
2017-May-25 03:27N 55°02' W 001°22'0 0.0
2017-May-25 03:00N 55°02' W 001°22'0 0.0
2017-May-25 02:30N 55°02' W 001°22'0 0.0
2017-May-25 02:00N 55°02' W 001°22'0 0.0
2017-May-25 01:30N 55°02' W 001°22'0 0.0
2017-May-25 01:00N 55°02' W 001°22'0 0.1
2017-May-25 00:30N 55°02' W 001°22'0 0.1
2017-May-25 00:00N 55°02' W 001°22'0 0.1
2017-May-24 23:30N 55°02' W 001°22'0 0.1
2017-May-24 23:00N 55°02' W 001°22'0 0.1
2017-May-24 22:30N 55°02' W 001°22'0 0.1
2017-May-24 22:00N 55°02' W 001°22'0 0.1
2017-May-24 21:30N 55°02' W 001°22'0 0.0
2017-May-24 21:00N 55°02' W 001°22'0 0.0
2017-May-24 20:30N 55°02' W 001°22'2 4.9
2017-May-24 20:00N 55°01' W 001°19'713.2
2017-May-24 19:30N 54°57' W 001°09'914.9
2017-May-24 18:52N 54°51' W 000°56'1914.8
2017-May-24 17:36N 54°40' W 000°31'114.2
2017-May-24 17:30N 54°39' W 000°29'714.2
2017-May-24 17:00N 54°34' W 000°19'713.8
2017-May-24 16:30N 54°30' W 000°10'917.8
2017-May-24 16:00N 54°24' E 000°02'918.0
2017-May-24 15:30N 54°19' E 000°14'713.2
2017-May-24 15:00N 54°14' E 000°22'612.9
2017-May-24 14:30N 54°10' E 000°31'7314.3
2017-May-24 09:22N 53°20' E 002°01'513.9
2017-May-24 09:00N 53°16' E 002°08'4012.6
2017-May-24 05:47N 52°45' E 002°50'512.9
2017-May-24 05:24N 52°41' E 002°55'1213.3
2017-May-24 04:31N 52°31' E 003°06'313.7
2017-May-24 04:19N 52°29' E 003°09'514.1
2017-May-24 03:59N 52°25' E 003°14'714.2
2017-May-24 03:29N 52°19' E 003°20'714.4
2017-May-24 03:00N 52°14' E 003°26'714.3
2017-May-24 02:30N 52°08' E 003°34'713.5
2017-May-24 02:00N 52°06' E 003°44'713.2
2017-May-24 01:30N 52°03' E 003°54'510.6
2017-May-24 01:01N 52°00' E 004°01'612.7
2017-May-24 00:31N 51°57' E 004°10'510.7
2017-May-24 00:00N 51°54' E 004°17'4 8.0
2017-May-23 23:30N 51°51' E 004°21'5 9.5
2017-May-23 23:01N 51°50' E 004°29'4 8.5
2017-May-23 22:31N 51°48' E 004°35'4 8.4
2017-May-23 22:00N 51°45' E 004°38'4 7.2
2017-May-23 21:30N 51°41' E 004°35'0 0.9
2017-May-23 21:00N 51°41' E 004°36'0 0.0
2017-May-23 20:30N 51°41' E 004°36'0 0.0
2017-May-23 20:00N 51°41' E 004°36'0 0.0
2017-May-23 19:30N 51°41' E 004°36'0 0.0
2017-May-23 19:00N 51°41' E 004°36'0 0.0
2017-May-23 18:30N 51°41' E 004°36'0 0.0
2017-May-23 18:00N 51°41' E 004°36'0 0.0
2017-May-23 17:30N 51°41' E 004°36'0 0.0
2017-May-23 17:00N 51°41' E 004°36'0 0.0
2017-May-23 16:30N 51°41' E 004°36'0 0.0
2017-May-23 16:00N 51°41' E 004°36'0 0.0
2017-May-23 15:30N 51°41' E 004°36'0 0.0
2017-May-23 15:00N 51°41' E 004°36'0 0.0
2017-May-23 14:30N 51°41' E 004°36'0 0.0
2017-May-23 13:30N 51°41' E 004°36'0 0.0
2017-May-23 13:00N 51°41' E 004°36'0 0.0
2017-May-23 12:30N 51°41' E 004°36'0 0.0
2017-May-23 12:00N 51°41' E 004°36'0 0.0
2017-May-23 11:30N 51°41' E 004°36'0 0.0
2017-May-23 11:00N 51°41' E 004°36'0 0.0
2017-May-23 10:30N 51°41' E 004°36'0 0.0
2017-May-23 10:00N 51°41' E 004°36'0 0.0
2017-May-23 09:30N 51°41' E 004°36'0 0.0
2017-May-23 09:00N 51°41' E 004°36'0 0.0
2017-May-23 08:30N 51°41' E 004°36'0 0.0
2017-May-23 08:00N 51°41' E 004°36'0 0.0
2017-May-23 07:30N 51°41' E 004°36'0 0.0
2017-May-23 07:00N 51°41' E 004°36'0 0.0
2017-May-23 06:30N 51°41' E 004°36'0 0.0
2017-May-23 06:00N 51°41' E 004°36'0 0.0
2017-May-23 05:30N 51°41' E 004°36'0 0.0
2017-May-23 05:00N 51°41' E 004°36'0 0.0
2017-May-23 04:30N 51°41' E 004°36'0 0.0
2017-May-23 04:00N 51°41' E 004°36'0 0.0
2017-May-23 03:30N 51°41' E 004°36'0 0.0
2017-May-23 03:00N 51°41' E 004°36'0 0.0
2017-May-23 02:30N 51°41' E 004°36'0 0.0
2017-May-23 02:00N 51°41' E 004°36'0 0.0
2017-May-23 01:30N 51°41' E 004°36'0 0.1
2017-May-23 01:00N 51°41' E 004°36'0 0.1
2017-May-23 00:30N 51°41' E 004°36'0 0.0
2017-May-23 00:00N 51°41' E 004°36'0 0.0
2017-May-22 23:30N 51°41' E 004°36'0 0.0
2017-May-22 23:00N 51°41' E 004°36'0 0.0
2017-May-22 22:30N 51°41' E 004°36'0 0.0
2017-May-22 22:00N 51°41' E 004°36'0 0.0
2017-May-22 21:30N 51°41' E 004°36'0 0.0
2017-May-22 21:00N 51°41' E 004°36'0 0.0
2017-May-22 20:30N 51°41' E 004°36'0 0.0
2017-May-22 20:00N 51°41' E 004°36'0 0.0
2017-May-22 19:30N 51°41' E 004°36'0 0.0
2017-May-22 19:00N 51°41' E 004°36'0 0.0
2017-May-22 18:30N 51°41' E 004°36'0 0.0
2017-May-22 18:00N 51°41' E 004°36'0 0.0
2017-May-22 17:30N 51°41' E 004°36'0 0.0
2017-May-22 17:00N 51°41' E 004°36'0 0.0
2017-May-22 16:30N 51°41' E 004°36'0 0.0
2017-May-22 16:00N 51°41' E 004°36'0 0.0
2017-May-22 15:30N 51°41' E 004°36'0 0.0
2017-May-22 15:00N 51°41' E 004°36'0 0.0
2017-May-22 14:00N 51°41' E 004°36'0 0.0
2017-May-22 13:30N 51°41' E 004°36'0 0.0
2017-May-22 13:00N 51°41' E 004°36'0 0.0
2017-May-22 12:30N 51°41' E 004°36'0 0.0
2017-May-22 11:54N 51°41' E 004°36'0 0.0
2017-May-22 11:30N 51°41' E 004°36'0 0.0
2017-May-22 11:00N 51°41' E 004°36'0 0.0
2017-May-22 10:18N 51°41' E 004°36'0 0.0
2017-May-22 09:57N 51°41' E 004°36'0 0.0
2017-May-22 09:21N 51°41' E 004°36'0 0.0
2017-May-22 08:25N 51°41' E 004°36'0 0.0
2017-May-22 08:01N 51°41' E 004°36'0 0.0
2017-May-22 07:25N 51°41' E 004°36'0 0.0
2017-May-22 07:00N 51°41' E 004°36'0 0.0
2017-May-22 06:21N 51°41' E 004°36'0 0.0
2017-May-22 05:57N 51°41' E 004°36'0 0.0
2017-May-22 05:30N 51°41' E 004°36'0 0.0
2017-May-22 05:00N 51°41' E 004°36'0 0.0
2017-May-22 04:24N 51°41' E 004°36'0 0.0
2017-May-22 04:00N 51°41' E 004°36'0 0.0
2017-May-22 03:30N 51°41' E 004°36'0 0.0
2017-May-22 03:00N 51°41' E 004°36'0 0.0
2017-May-22 02:30N 51°41' E 004°36'0 0.0
2017-May-22 02:00N 51°41' E 004°36'0 0.0
2017-May-22 01:28N 51°41' E 004°36'0 0.0
2017-May-22 01:00N 51°41' E 004°36'0 0.0
2017-May-22 00:30N 51°41' E 004°36'0 0.0
2017-May-22 00:00N 51°41' E 004°36'0 0.0
2017-May-21 23:30N 51°41' E 004°36'0 0.0
2017-May-21 22:55N 51°41' E 004°36'0 0.0
2017-May-21 22:30N 51°41' E 004°36'0 0.0
2017-May-21 21:52N 51°41' E 004°36'0 0.0
2017-May-21 21:22N 51°41' E 004°36'0 0.0
2017-May-21 21:00N 51°41' E 004°36'0 0.0
2017-May-21 20:25N 51°41' E 004°36'0 0.0
2017-May-21 20:00N 51°41' E 004°36'0 0.0
2017-May-21 19:30N 51°41' E 004°36'0 0.9
2017-May-21 19:00N 51°41' E 004°35'2 4.0
2017-May-21 18:30N 51°43' E 004°37'3 6.7
2017-May-21 18:00N 51°46' E 004°38'3 5.4
2017-May-21 17:30N 51°48' E 004°35'3 6.3
2017-May-21 17:01N 51°50' E 004°30'4 8.6
2017-May-21 16:31N 51°51' E 004°23'3 6.1
2017-May-21 16:01N 51°53' E 004°20'3 5.6
2017-May-21 15:31N 51°54' E 004°16'5 9.4
2017-May-21 15:01N 51°57' E 004°10'1313.5
2017-May-21 14:00N 51°59' E 003°48'612.6
2017-May-21 13:30N 51°58' E 003°39'714.1
2017-May-21 13:00N 51°56' E 003°28'612.7
2017-May-21 12:30N 51°54' E 003°18'1612.5
2017-May-21 11:14N 51°49' E 002°53'312.7
2017-May-21 11:00N 51°48' E 002°48'612.9
2017-May-21 10:30N 51°46' E 002°39'713.1
2017-May-21 09:59N 51°41' E 002°31'613.3
2017-May-21 09:30N 51°37' E 002°24'713.4
2017-May-21 09:00N 51°31' E 002°17'713.5
2017-May-21 08:30N 51°26' E 002°10'713.2
2017-May-21 08:00N 51°20' E 002°07'612.9
2017-May-21 07:30N 51°14' E 002°03'713.9
2017-May-21 07:00N 51°10' E 001°54'917.7
2017-May-21 06:30N 51°05' E 001°43'918.1
2017-May-21 06:01N 50°58' E 001°33'5278.4
2017-May-21 06:00N 50°54' E 001°30'5 9.3 1025.710.8 13.310.812.5
2017-May-21 05:29N 50°50' E 001°26'817.2
2017-May-21 05:00N 50°42' E 001°21'3616.6
2017-May-21 02:52N 50°26' E 000°32'617.0
2017-May-21 02:31N 50°24' E 000°23'816.9
2017-May-21 02:01N 50°21' E 000°10'816.5
2017-May-21 01:30N 50°19' W 000°03'816.2
2017-May-21 01:00N 50°17' W 000°15'816.1
2017-May-21 00:31N 50°15' W 000°27'815.8
2017-May-21 00:01N 50°12' W 000°39'297.1
2017-May-21 00:00N 50°12' W 000°36'919.2 240 / 81025.010.8 13.611.212.6
2017-May-20 23:31N 50°11' W 000°50'815.1
2017-May-20 23:01N 50°09' W 001°02'1614.6
2017-May-20 21:56N 50°05' W 001°25'4614.2
2017-May-20 18:42N 49°52' W 002°34'414.7
2017-May-20 18:26N 49°51' W 002°39'614.9
2017-May-20 18:00N 49°49' W 002°49'8470.9
2017-May-20 18:00N 49°42' W 002°54'510.8 240 / 151022.110.8 17.812.812.7
2017-May-20 17:30N 49°46' W 002°60'915.3
2017-May-20 16:53N 49°41' W 003°12'615.2
2017-May-20 16:30N 49°38' W 003°20'6915.2
2017-May-20 12:00N 49°00' W 004°48'1519.0 250 / 111020.510.8 19.216.613.0
2017-May-20 11:12N 48°57' W 005°10'316.2
2017-May-20 11:00N 48°55' W 005°15'816.2
2017-May-20 10:30N 48°51' W 005°25'916.1
2017-May-20 09:57N 48°47' W 005°37'6115.4
2017-May-20 06:00N 48°00' W 006°36'9115.2 280 / 121019.710.8 13.6 9.313.5
2017-May-20 00:00N 47°18' W 008°36'9315.5 290 / 161020.610.8 12.5 9.813.8
2017-May-19 18:00N 46°42' W 010°42'   280 / 201021.210.8 17.011.614.0
Track history (hours):
 
Tides and Currents Weather Stations Pressure Air Temp Water Temp Dewpoint Dewpoint Depression Visibility Wind Speed Wind Dir Waves Ship Positions

Slotergracht

Last reported at 2017-May-29 14:59 UTC. Time now 2017-May-29 15:20 UTC.
Position N 53°32' E 009°59'.

Length 168 m; beam 25 m.

Type: Cargo ship. MMSI: 246456000.

Date/timePositionNaut miles runAvg speedWind from/ knotsBaromVisibWave heightAir tempDewpointWater temp
2017-May-29 14:59N 53°32' E 009°59'0 0.0
2017-May-29 14:29N 53°32' E 009°59'0 0.0
2017-May-29 13:29N 53°32' E 009°59'0 0.0
2017-May-29 12:59N 53°32' E 009°59'0 0.0
2017-May-29 12:29N 53°32' E 009°59'0 0.0
2017-May-29 11:59N 53°32' E 009°59'0 0.0
2017-May-29 11:29N 53°32' E 009°59'0 0.0
2017-May-29 10:59N 53°32' E 009°59'0 0.0
2017-May-29 10:29N 53°32' E 009°59'0 0.0
2017-May-29 09:59N 53°32' E 009°59'0 0.0
2017-May-29 09:29N 53°32' E 009°59'0 0.0
2017-May-29 08:59N 53°32' E 009°59'0 0.0
2017-May-29 08:29N 53°32' E 009°59'0 0.0
2017-May-29 07:59N 53°32' E 009°59'0 0.0
2017-May-29 07:29N 53°32' E 009°59'0 0.0
2017-May-29 06:59N 53°32' E 009°59'0 0.0
2017-May-29 06:29N 53°32' E 009°59'0 0.0
2017-May-29 05:59N 53°32' E 009°59'0 0.0
2017-May-29 05:29N 53°32' E 009°59'0 0.0
2017-May-29 04:59N 53°32' E 009°59'0 0.0
2017-May-29 04:29N 53°32' E 009°59'0 0.0
2017-May-29 03:59N 53°32' E 009°59'0 0.0
2017-May-29 03:29N 53°32' E 009°59'0 0.0
2017-May-29 02:59N 53°32' E 009°59'0 0.0
2017-May-29 02:29N 53°32' E 009°59'0 0.0
2017-May-29 01:59N 53°32' E 009°59'0 0.0
2017-May-29 01:29N 53°32' E 009°59'0 0.0
2017-May-29 00:59N 53°32' E 009°59'0 0.0
2017-May-29 00:29N 53°32' E 009°59'0 0.0
2017-May-28 23:59N 53°32' E 009°59'0 0.0
2017-May-28 23:29N 53°32' E 009°59'0 0.0
2017-May-28 22:59N 53°32' E 009°59'0 0.0
2017-May-28 22:29N 53°32' E 009°59'0 0.0
2017-May-28 21:59N 53°32' E 009°59'0 0.0
2017-May-28 21:29N 53°32' E 009°59'0 0.0
2017-May-28 20:59N 53°32' E 009°59'0 0.0
2017-May-28 20:29N 53°32' E 009°59'0 0.0
2017-May-28 19:59N 53°32' E 009°59'0 0.0
2017-May-28 19:29N 53°32' E 009°59'0 0.0
2017-May-28 18:59N 53°32' E 009°59'0 0.0
2017-May-28 18:30N 53°32' E 009°59'1 1.9
2017-May-28 18:00N 53°33' E 009°58'3 6.9
2017-May-28 17:30N 53°33' E 009°52'5 9.8
2017-May-28 17:01N 53°34' E 009°44'815.1
2017-May-28 16:31N 53°37' E 009°33'815.8
2017-May-28 16:00N 53°44' E 009°26'918.5
2017-May-28 15:31N 53°52' E 009°18'714.2
2017-May-28 15:00N 53°52' E 009°06'1514.9
2017-May-28 14:00N 53°55' E 008°41'918.4
2017-May-28 13:30N 53°59' E 008°26'816.5
2017-May-28 13:00N 53°60' E 008°13'815.9
2017-May-28 12:30N 54°01' E 007°59'1019.7
2017-May-28 12:00N 54°06' E 007°44'11619.3
2017-May-28 06:00N 54°30' E 004°30'15018.7 210 / 101015.2 5.4 14.011.9
2017-May-27 21:58N 54°54' E 000°14'4019.1
2017-May-27 19:52N 54°59' W 000°55'719.4
2017-May-27 19:30N 54°60' W 001°07'918.0
2017-May-27 19:00N 55°01' W 001°22'3 6.9
2017-May-27 18:30N 54°59' W 001°28'3 5.2
2017-May-27 18:00N 54°59' W 001°32'0 0.0
2017-May-27 17:30N 54°59' W 001°32'0 0.0
2017-May-27 16:58N 54°59' W 001°32'0 0.0
2017-May-27 16:28N 54°59' W 001°32'0 0.0
2017-May-27 15:58N 54°59' W 001°32'0 0.0
2017-May-27 15:28N 54°59' W 001°32'0 0.0
2017-May-27 14:58N 54°59' W 001°32'0 0.0
2017-May-27 13:58N 54°59' W 001°32'0 0.0
2017-May-27 13:28N 54°59' W 001°32'0 0.0
2017-May-27 12:58N 54°59' W 001°32'0 0.0
2017-May-27 12:28N 54°59' W 001°32'0 0.0
2017-May-27 11:58N 54°59' W 001°32'0 0.0
2017-May-27 11:19N 54°59' W 001°32'0 0.0
2017-May-27 10:55N 54°59' W 001°32'0 0.0
2017-May-27 10:25N 54°59' W 001°32'0 0.0
2017-May-27 09:58N 54°59' W 001°32'0 0.0
2017-May-27 09:28N 54°59' W 001°32'0 0.0
2017-May-27 08:58N 54°59' W 001°32'0 0.0
2017-May-27 08:28N 54°59' W 001°32'0 0.0
2017-May-27 07:58N 54°59' W 001°32'0 0.0
2017-May-27 07:28N 54°59' W 001°32'0 0.0
2017-May-27 06:40N 54°59' W 001°32'0 0.0
2017-May-27 06:28N 54°59' W 001°32'0 0.0
2017-May-27 05:58N 54°59' W 001°32'0 0.0
2017-May-27 05:28N 54°59' W 001°32'0 0.0
2017-May-27 04:58N 54°59' W 001°32'0 0.0
2017-May-27 04:28N 54°59' W 001°32'0 0.0
2017-May-27 03:58N 54°59' W 001°32'0 0.0
2017-May-27 03:25N 54°59' W 001°32'0 0.0
2017-May-27 02:58N 54°59' W 001°32'0 0.0
2017-May-27 02:28N 54°59' W 001°32'0 0.0
2017-May-27 01:58N 54°59' W 001°32'0 0.0
2017-May-27 01:31N 54°59' W 001°32'0 0.0
2017-May-27 00:58N 54°59' W 001°32'0 0.0
2017-May-27 00:31N 54°59' W 001°32'0 0.0
2017-May-26 23:57N 54°59' W 001°32'0 0.0
2017-May-26 23:30N 54°59' W 001°32'0 0.0
2017-May-26 23:00N 54°59' W 001°32'0 0.0
2017-May-26 22:30N 54°59' W 001°32'0 0.0
2017-May-26 21:57N 54°59' W 001°32'0 0.0
2017-May-26 21:24N 54°59' W 001°32'0 0.0
2017-May-26 20:42N 54°59' W 001°32'0 0.0
2017-May-26 20:30N 54°59' W 001°32'0 0.0
2017-May-26 20:00N 54°59' W 001°32'0 0.0
2017-May-26 19:30N 54°59' W 001°32'0 0.0
2017-May-26 19:00N 54°59' W 001°32'0 0.0
2017-May-26 18:27N 54°59' W 001°32'0 0.0
2017-May-26 17:57N 54°59' W 001°32'0 0.0
2017-May-26 17:30N 54°59' W 001°32'0 0.0
2017-May-26 17:00N 54°59' W 001°32'0 0.0
2017-May-26 16:30N 54°59' W 001°32'0 0.0
2017-May-26 14:57N 54°59' W 001°32'0 0.0
2017-May-26 14:00N 54°59' W 001°32'0 0.0
2017-May-26 13:30N 54°59' W 001°32'0 0.0
2017-May-26 13:00N 54°59' W 001°32'0 0.0
2017-May-26 12:30N 54°59' W 001°32'0 0.0
2017-May-26 12:00N 54°59' W 001°32'0 0.0
2017-May-26 11:30N 54°59' W 001°32'0 0.0
2017-May-26 11:00N 54°59' W 001°32'0 0.0
2017-May-26 10:30N 54°59' W 001°32'0 0.0
2017-May-26 10:00N 54°59' W 001°32'0 0.0
2017-May-26 09:21N 54°59' W 001°32'0 0.0
2017-May-26 09:00N 54°59' W 001°32'0 0.0
2017-May-26 08:30N 54°59' W 001°32'0 0.0
2017-May-26 08:00N 54°59' W 001°32'0 0.0
2017-May-26 07:30N 54°59' W 001°32'0 0.0
2017-May-26 07:00N 54°59' W 001°32'0 0.0
2017-May-26 06:21N 54°59' W 001°32'0 0.0
2017-May-26 05:51N 54°59' W 001°32'0 0.0
2017-May-26 05:21N 54°59' W 001°32'0 0.0
2017-May-26 05:00N 54°59' W 001°32'0 0.0
2017-May-26 04:30N 54°59' W 001°32'0 0.0
2017-May-26 03:54N 54°59' W 001°32'0 0.0
2017-May-26 03:24N 54°59' W 001°32'0 0.0
2017-May-26 02:57N 54°59' W 001°32'0 0.0
2017-May-26 02:30N 54°59' W 001°32'0 0.0
2017-May-26 01:57N 54°59' W 001°32'0 0.0
2017-May-26 01:24N 54°59' W 001°32'0 0.0
2017-May-26 00:54N 54°59' W 001°32'0 0.0
2017-May-26 00:21N 54°59' W 001°32'0 0.0
2017-May-25 23:54N 54°59' W 001°32'0 0.0
2017-May-25 23:27N 54°59' W 001°32'0 0.0
2017-May-25 22:57N 54°59' W 001°32'0 0.0
2017-May-25 22:27N 54°59' W 001°32'0 0.0
2017-May-25 21:57N 54°59' W 001°32'0 0.0
2017-May-25 21:27N 54°59' W 001°32'0 0.0
2017-May-25 20:57N 54°59' W 001°32'0 0.0
2017-May-25 20:27N 54°59' W 001°32'0 0.0
2017-May-25 19:57N 54°59' W 001°32'0 0.0
2017-May-25 19:27N 54°59' W 001°32'0 0.0
2017-May-25 18:57N 54°59' W 001°32'0 0.0
2017-May-25 18:27N 54°59' W 001°32'0 0.0
2017-May-25 18:00N 54°59' W 001°32'0 0.0
2017-May-25 17:24N 54°59' W 001°32'0 0.0
2017-May-25 17:00N 54°59' W 001°32'0 0.0
2017-May-25 16:30N 54°59' W 001°32'0 0.0
2017-May-25 16:00N 54°59' W 001°32'0 0.0
2017-May-25 15:30N 54°59' W 001°32'0 0.0
2017-May-25 15:00N 54°59' W 001°32'0 0.0
2017-May-25 14:00N 54°59' W 001°32'2 3.5
2017-May-25 13:30N 54°59' W 001°29'2 3.2
2017-May-25 13:00N 55°00' W 001°27'3 6.3
2017-May-25 12:30N 55°02' W 001°22'0 0.4
2017-May-25 12:00N 55°02' W 001°22'0 0.2
2017-May-25 11:30N 55°02' W 001°22'0 0.0
2017-May-25 11:00N 55°02' W 001°22'0 0.0
2017-May-25 10:30N 55°02' W 001°22'0 0.0
2017-May-25 10:00N 55°02' W 001°22'0 0.0
2017-May-25 09:30N 55°02' W 001°22'0 0.0
2017-May-25 09:00N 55°02' W 001°22'0 0.0
2017-May-25 08:30N 55°02' W 001°22'0 0.0
2017-May-25 07:57N 55°02' W 001°22'0 0.0
2017-May-25 07:30N 55°02' W 001°22'0 0.0
2017-May-25 07:00N 55°02' W 001°22'0 0.0
2017-May-25 06:30N 55°02' W 001°22'0 0.3
2017-May-25 06:00N 55°02' W 001°22'0 0.1
2017-May-25 05:30N 55°02' W 001°22'0 0.0
2017-May-25 05:00N 55°02' W 001°22'0 0.0
2017-May-25 04:30N 55°02' W 001°22'0 0.1
2017-May-25 04:00N 55°02' W 001°22'0 0.0
2017-May-25 03:27N 55°02' W 001°22'0 0.0
2017-May-25 03:00N 55°02' W 001°22'0 0.0
2017-May-25 02:30N 55°02' W 001°22'0 0.0
2017-May-25 02:00N 55°02' W 001°22'0 0.0
2017-May-25 01:30N 55°02' W 001°22'0 0.0
2017-May-25 01:00N 55°02' W 001°22'0 0.1
2017-May-25 00:30N 55°02' W 001°22'0 0.1
2017-May-25 00:00N 55°02' W 001°22'0 0.1
2017-May-24 23:30N 55°02' W 001°22'0 0.1
2017-May-24 23:00N 55°02' W 001°22'0 0.1
2017-May-24 22:30N 55°02' W 001°22'0 0.1
2017-May-24 22:00N 55°02' W 001°22'0 0.1
2017-May-24 21:30N 55°02' W 001°22'0 0.0
2017-May-24 21:00N 55°02' W 001°22'0 0.0
2017-May-24 20:30N 55°02' W 001°22'2 4.9
2017-May-24 20:00N 55°01' W 001°19'713.2
2017-May-24 19:30N 54°57' W 001°09'914.9
2017-May-24 18:52N 54°51' W 000°56'1914.8
2017-May-24 17:36N 54°40' W 000°31'114.2
2017-May-24 17:30N 54°39' W 000°29'714.2
2017-May-24 17:00N 54°34' W 000°19'713.8
2017-May-24 16:30N 54°30' W 000°10'917.8
2017-May-24 16:00N 54°24' E 000°02'918.0
2017-May-24 15:30N 54°19' E 000°14'713.2
2017-May-24 15:00N 54°14' E 000°22'612.9
2017-May-24 14:30N 54°10' E 000°31'7314.3
2017-May-24 09:22N 53°20' E 002°01'513.9
2017-May-24 09:00N 53°16' E 002°08'4012.6
2017-May-24 05:47N 52°45' E 002°50'512.9
2017-May-24 05:24N 52°41' E 002°55'1213.3
2017-May-24 04:31N 52°31' E 003°06'313.7
2017-May-24 04:19N 52°29' E 003°09'514.1
2017-May-24 03:59N 52°25' E 003°14'714.2
2017-May-24 03:29N 52°19' E 003°20'714.4
2017-May-24 03:00N 52°14' E 003°26'714.3
2017-May-24 02:30N 52°08' E 003°34'713.5
2017-May-24 02:00N 52°06' E 003°44'713.2
2017-May-24 01:30N 52°03' E 003°54'510.6
2017-May-24 01:01N 52°00' E 004°01'612.7
2017-May-24 00:31N 51°57' E 004°10'510.7
2017-May-24 00:00N 51°54' E 004°17'4 8.0
2017-May-23 23:30N 51°51' E 004°21'5 9.5
2017-May-23 23:01N 51°50' E 004°29'4 8.5
2017-May-23 22:31N 51°48' E 004°35'4 8.4
2017-May-23 22:00N 51°45' E 004°38'4 7.2
2017-May-23 21:30N 51°41' E 004°35'0 0.9
2017-May-23 21:00N 51°41' E 004°36'0 0.0
2017-May-23 20:30N 51°41' E 004°36'0 0.0
2017-May-23 20:00N 51°41' E 004°36'0 0.0
2017-May-23 19:30N 51°41' E 004°36'0 0.0
2017-May-23 19:00N 51°41' E 004°36'0 0.0
2017-May-23 18:30N 51°41' E 004°36'0 0.0
2017-May-23 18:00N 51°41' E 004°36'0 0.0
2017-May-23 17:30N 51°41' E 004°36'0 0.0
2017-May-23 17:00N 51°41' E 004°36'0 0.0
2017-May-23 16:30N 51°41' E 004°36'0 0.0
2017-May-23 16:00N 51°41' E 004°36'0 0.0
2017-May-23 15:30N 51°41' E 004°36'0 0.0
2017-May-23 15:00N 51°41' E 004°36'0 0.0
2017-May-23 14:30N 51°41' E 004°36'0 0.0
2017-May-23 13:30N 51°41' E 004°36'0 0.0
2017-May-23 13:00N 51°41' E 004°36'0 0.0
2017-May-23 12:30N 51°41' E 004°36'0 0.0
2017-May-23 12:00N 51°41' E 004°36'0 0.0
2017-May-23 11:30N 51°41' E 004°36'0 0.0
2017-May-23 11:00N 51°41' E 004°36'0 0.0
2017-May-23 10:30N 51°41' E 004°36'0 0.0
2017-May-23 10:00N 51°41' E 004°36'0 0.0
2017-May-23 09:30N 51°41' E 004°36'0 0.0
2017-May-23 09:00N 51°41' E 004°36'0 0.0
2017-May-23 08:30N 51°41' E 004°36'0 0.0
2017-May-23 08:00N 51°41' E 004°36'0 0.0
2017-May-23 07:30N 51°41' E 004°36'0 0.0
2017-May-23 07:00N 51°41' E 004°36'0 0.0
2017-May-23 06:30N 51°41' E 004°36'0 0.0
2017-May-23 06:00N 51°41' E 004°36'0 0.0
2017-May-23 05:30N 51°41' E 004°36'0 0.0
2017-May-23 05:00N 51°41' E 004°36'0 0.0
2017-May-23 04:30N 51°41' E 004°36'0 0.0
2017-May-23 04:00N 51°41' E 004°36'0 0.0
2017-May-23 03:30N 51°41' E 004°36'0 0.0
2017-May-23 03:00N 51°41' E 004°36'0 0.0
2017-May-23 02:30N 51°41' E 004°36'0 0.0
2017-May-23 02:00N 51°41' E 004°36'0 0.0
2017-May-23 01:30N 51°41' E 004°36'0 0.1
2017-May-23 01:00N 51°41' E 004°36'0 0.1
2017-May-23 00:30N 51°41' E 004°36'0 0.0
2017-May-23 00:00N 51°41' E 004°36'0 0.0
2017-May-22 23:30N 51°41' E 004°36'0 0.0
2017-May-22 23:00N 51°41' E 004°36'0 0.0
2017-May-22 22:30N 51°41' E 004°36'0 0.0
2017-May-22 22:00N 51°41' E 004°36'0 0.0
2017-May-22 21:30N 51°41' E 004°36'0 0.0
2017-May-22 21:00N 51°41' E 004°36'0 0.0
2017-May-22 20:30N 51°41' E 004°36'0 0.0
2017-May-22 20:00N 51°41' E 004°36'0 0.0
2017-May-22 19:30N 51°41' E 004°36'0 0.0
2017-May-22 19:00N 51°41' E 004°36'0 0.0
2017-May-22 18:30N 51°41' E 004°36'0 0.0
2017-May-22 18:00N 51°41' E 004°36'0 0.0
2017-May-22 17:30N 51°41' E 004°36'0 0.0
2017-May-22 17:00N 51°41' E 004°36'0 0.0
2017-May-22 16:30N 51°41' E 004°36'0 0.0
2017-May-22 16:00N 51°41' E 004°36'0 0.0
2017-May-22 15:30N 51°41' E 004°36'0 0.0
2017-May-22 15:00N 51°41' E 004°36'0 0.0
2017-May-22 14:00N 51°41' E 004°36'0 0.0
2017-May-22 13:30N 51°41' E 004°36'0 0.0
2017-May-22 13:00N 51°41' E 004°36'0 0.0
2017-May-22 12:30N 51°41' E 004°36'0 0.0
2017-May-22 11:54N 51°41' E 004°36'0 0.0
2017-May-22 11:30N 51°41' E 004°36'0 0.0
2017-May-22 11:00N 51°41' E 004°36'0 0.0
2017-May-22 10:18N 51°41' E 004°36'0 0.0
2017-May-22 09:57N 51°41' E 004°36'0 0.0
2017-May-22 09:21N 51°41' E 004°36'0 0.0
2017-May-22 08:25N 51°41' E 004°36'0 0.0
2017-May-22 08:01N 51°41' E 004°36'0 0.0
2017-May-22 07:25N 51°41' E 004°36'0 0.0
2017-May-22 07:00N 51°41' E 004°36'0 0.0
2017-May-22 06:21N 51°41' E 004°36'0 0.0
2017-May-22 05:57N 51°41' E 004°36'0 0.0
2017-May-22 05:30N 51°41' E 004°36'0 0.0
2017-May-22 05:00N 51°41' E 004°36'0 0.0
2017-May-22 04:24N 51°41' E 004°36'0 0.0
2017-May-22 04:00N 51°41' E 004°36'0 0.0
2017-May-22 03:30N 51°41' E 004°36'0 0.0
2017-May-22 03:00N 51°41' E 004°36'0 0.0
2017-May-22 02:30N 51°41' E 004°36'0 0.0
2017-May-22 02:00N 51°41' E 004°36'0 0.0
2017-May-22 01:28N 51°41' E 004°36'0 0.0
2017-May-22 01:00N 51°41' E 004°36'0 0.0
2017-May-22 00:30N 51°41' E 004°36'0 0.0
2017-May-22 00:00N 51°41' E 004°36'0 0.0
2017-May-21 23:30N 51°41' E 004°36'0 0.0
2017-May-21 22:55N 51°41' E 004°36'0 0.0
2017-May-21 22:30N 51°41' E 004°36'0 0.0
2017-May-21 21:52N 51°41' E 004°36'0 0.0
2017-May-21 21:22N 51°41' E 004°36'0 0.0
2017-May-21 21:00N 51°41' E 004°36'0 0.0
2017-May-21 20:25N 51°41' E 004°36'0 0.0
2017-May-21 20:00N 51°41' E 004°36'0 0.0
2017-May-21 19:30N 51°41' E 004°36'0 0.9
2017-May-21 19:00N 51°41' E 004°35'2 4.0
2017-May-21 18:30N 51°43' E 004°37'3 6.7
2017-May-21 18:00N 51°46' E 004°38'3 5.4
2017-May-21 17:30N 51°48' E 004°35'3 6.3
2017-May-21 17:01N 51°50' E 004°30'4 8.6
2017-May-21 16:31N 51°51' E 004°23'3 6.1
2017-May-21 16:01N 51°53' E 004°20'3 5.6
2017-May-21 15:31N 51°54' E 004°16'5 9.4
2017-May-21 15:01N 51°57' E 004°10'1313.5
2017-May-21 14:00N 51°59' E 003°48'612.6
2017-May-21 13:30N 51°58' E 003°39'714.1
2017-May-21 13:00N 51°56' E 003°28'612.7
2017-May-21 12:30N 51°54' E 003°18'1612.5
2017-May-21 11:14N 51°49' E 002°53'312.7
2017-May-21 11:00N 51°48' E 002°48'612.9
2017-May-21 10:30N 51°46' E 002°39'713.1
2017-May-21 09:59N 51°41' E 002°31'613.3
2017-May-21 09:30N 51°37' E 002°24'713.4
2017-May-21 09:00N 51°31' E 002°17'713.5
2017-May-21 08:30N 51°26' E 002°10'713.2
2017-May-21 08:00N 51°20' E 002°07'612.9
2017-May-21 07:30N 51°14' E 002°03'713.9
2017-May-21 07:00N 51°10' E 001°54'917.7
2017-May-21 06:30N 51°05' E 001°43'918.1
2017-May-21 06:01N 50°58' E 001°33'5278.4
2017-May-21 06:00N 50°54' E 001°30'5 9.3 1025.710.8 13.310.812.5
2017-May-21 05:29N 50°50' E 001°26'817.2
2017-May-21 05:00N 50°42' E 001°21'3616.6
2017-May-21 02:52N 50°26' E 000°32'617.0
2017-May-21 02:31N 50°24' E 000°23'816.9
2017-May-21 02:01N 50°21' E 000°10'816.5
2017-May-21 01:30N 50°19' W 000°03'816.2
2017-May-21 01:00N 50°17' W 000°15'816.1
2017-May-21 00:31N 50°15' W 000°27'815.8
2017-May-21 00:01N 50°12' W 000°39'297.1
2017-May-21 00:00N 50°12' W 000°36'919.2 240 / 81025.010.8 13.611.212.6
2017-May-20 23:31N 50°11' W 000°50'815.1
2017-May-20 23:01N 50°09' W 001°02'1614.6
2017-May-20 21:56N 50°05' W 001°25'4614.2
2017-May-20 18:42N 49°52' W 002°34'414.7
2017-May-20 18:26N 49°51' W 002°39'614.9
2017-May-20 18:00N 49°49' W 002°49'8470.9
2017-May-20 18:00N 49°42' W 002°54'510.8 240 / 151022.110.8 17.812.812.7
2017-May-20 17:30N 49°46' W 002°60'915.3
2017-May-20 16:53N 49°41' W 003°12'615.2
2017-May-20 16:30N 49°38' W 003°20'6915.2
2017-May-20 12:00N 49°00' W 004°48'1519.0 250 / 111020.510.8 19.216.613.0
2017-May-20 11:12N 48°57' W 005°10'316.2
2017-May-20 11:00N 48°55' W 005°15'816.2
2017-May-20 10:30N 48°51' W 005°25'916.1
2017-May-20 09:57N 48°47' W 005°37'6115.4
2017-May-20 06:00N 48°00' W 006°36'9115.2 280 / 121019.710.8 13.6 9.313.5
2017-May-20 00:00N 47°18' W 008°36'9315.5 290 / 161020.610.8 12.5 9.813.8
2017-May-19 18:00N 46°42' W 010°42'   280 / 201021.210.8 17.011.614.0

Dump ship's entire track history